sensor_id;sensor_type;location;lat;lon;timestamp;P1;durP1;ratioP1;P2;durP2;ratioP2
52494;SDS011;38405;53.212;5.660;2022-11-06T00:00:10;12.85;;;7.10;;
52494;SDS011;38405;53.212;5.660;2022-11-06T00:02:37;12.35;;;6.88;;
52494;SDS011;38405;53.212;5.660;2022-11-06T00:05:02;13.27;;;6.85;;
52494;SDS011;38405;53.212;5.660;2022-11-06T00:07:47;13.75;;;6.97;;
52494;SDS011;38405;53.212;5.660;2022-11-06T00:10:13;14.63;;;7.60;;
52494;SDS011;38405;53.212;5.660;2022-11-06T00:12:40;11.23;;;7.05;;
52494;SDS011;38405;53.212;5.660;2022-11-06T00:15:06;10.32;;;6.80;;
52494;SDS011;38405;53.212;5.660;2022-11-06T00:17:32;12.93;;;7.65;;
52494;SDS011;38405;53.212;5.660;2022-11-06T00:19:58;13.57;;;6.63;;
52494;SDS011;38405;53.212;5.660;2022-11-06T00:22:24;15.02;;;7.22;;
52494;SDS011;38405;53.212;5.660;2022-11-06T00:24:50;12.57;;;6.72;;
52494;SDS011;38405;53.212;5.660;2022-11-06T00:27:15;15.27;;;6.88;;
52494;SDS011;38405;53.212;5.660;2022-11-06T00:29:41;10.90;;;6.30;;
52494;SDS011;38405;53.212;5.660;2022-11-06T00:32:07;19.05;;;7.20;;
52494;SDS011;38405;53.212;5.660;2022-11-06T00:34:33;11.00;;;6.80;;
52494;SDS011;38405;53.212;5.660;2022-11-06T00:36:59;20.88;;;7.43;;
52494;SDS011;38405;53.212;5.660;2022-11-06T00:39:24;13.90;;;7.00;;
52494;SDS011;38405;53.212;5.660;2022-11-06T00:41:50;9.15;;;6.63;;
52494;SDS011;38405;53.212;5.660;2022-11-06T00:44:16;14.20;;;6.60;;
52494;SDS011;38405;53.212;5.660;2022-11-06T00:46:41;9.75;;;6.47;;
52494;SDS011;38405;53.212;5.660;2022-11-06T00:49:07;11.27;;;6.28;;
52494;SDS011;38405;53.212;5.660;2022-11-06T00:51:34;10.05;;;6.45;;
52494;SDS011;38405;53.212;5.660;2022-11-06T00:54:03;10.45;;;7.25;;
52494;SDS011;38405;53.212;5.660;2022-11-06T00:56:31;14.32;;;7.70;;
52494;SDS011;38405;53.212;5.660;2022-11-06T00:58:58;13.35;;;7.10;;
52494;SDS011;38405;53.212;5.660;2022-11-06T01:01:25;15.38;;;7.95;;
52494;SDS011;38405;53.212;5.660;2022-11-06T01:03:54;20.52;;;7.82;;
52494;SDS011;38405;53.212;5.660;2022-11-06T01:06:22;15.00;;;8.60;;
52494;SDS011;38405;53.212;5.660;2022-11-06T01:08:49;14.90;;;7.38;;
52494;SDS011;38405;53.212;5.660;2022-11-06T01:11:16;11.23;;;7.50;;
52494;SDS011;38405;53.212;5.660;2022-11-06T01:13:44;13.32;;;7.78;;
52494;SDS011;38405;53.212;5.660;2022-11-06T01:16:11;13.13;;;7.63;;
52494;SDS011;38405;53.212;5.660;2022-11-06T01:18:38;18.77;;;7.60;;
52494;SDS011;38405;53.212;5.660;2022-11-06T01:21:05;20.02;;;7.68;;
52494;SDS011;38405;53.212;5.660;2022-11-06T01:23:32;13.68;;;7.85;;
52494;SDS011;38405;53.212;5.660;2022-11-06T01:25:59;12.43;;;7.18;;
52494;SDS011;38405;53.212;5.660;2022-11-06T01:28:26;15.90;;;8.23;;
52494;SDS011;38405;53.212;5.660;2022-11-06T01:30:53;14.82;;;7.82;;
52494;SDS011;38405;53.212;5.660;2022-11-06T01:33:19;14.82;;;7.80;;
52494;SDS011;38405;53.212;5.660;2022-11-06T01:35:50;16.38;;;7.63;;
52494;SDS011;38405;53.212;5.660;2022-11-06T01:38:16;17.17;;;8.55;;
52494;SDS011;38405;53.212;5.660;2022-11-06T01:40:43;10.77;;;6.47;;
52494;SDS011;38405;53.212;5.660;2022-11-06T01:43:18;11.43;;;7.20;;
52494;SDS011;38405;53.212;5.660;2022-11-06T01:45:46;17.73;;;7.43;;
52494;SDS011;38405;53.212;5.660;2022-11-06T01:48:15;19.50;;;7.97;;
52494;SDS011;38405;53.212;5.660;2022-11-06T01:50:44;12.93;;;8.00;;
52494;SDS011;38405;53.212;5.660;2022-11-06T01:53:13;17.17;;;8.00;;
52494;SDS011;38405;53.212;5.660;2022-11-06T01:55:41;18.73;;;8.80;;
52494;SDS011;38405;53.212;5.660;2022-11-06T01:58:11;18.00;;;8.95;;
52494;SDS011;38405;53.212;5.660;2022-11-06T02:00:39;19.00;;;8.95;;
52494;SDS011;38405;53.212;5.660;2022-11-06T02:03:06;15.15;;;8.55;;
52494;SDS011;38405;53.212;5.660;2022-11-06T02:05:32;15.73;;;9.23;;
52494;SDS011;38405;53.212;5.660;2022-11-06T02:07:58;17.85;;;8.95;;
52494;SDS011;38405;53.212;5.660;2022-11-06T02:10:25;15.52;;;8.50;;
52494;SDS011;38405;53.212;5.660;2022-11-06T02:16:09;14.80;;;9.23;;
52494;SDS011;38405;53.212;5.660;2022-11-06T02:30:07;12.68;;;9.98;;
52494;SDS011;38405;53.212;5.660;2022-11-06T02:35:08;13.63;;;10.02;;
52494;SDS011;38405;53.212;5.660;2022-11-06T02:37:48;20.23;;;10.00;;
52494;SDS011;38405;53.212;5.660;2022-11-06T02:40:17;19.48;;;10.27;;
52494;SDS011;38405;53.212;5.660;2022-11-06T02:42:46;18.40;;;10.52;;
52494;SDS011;38405;53.212;5.660;2022-11-06T02:45:14;14.30;;;9.40;;
52494;SDS011;38405;53.212;5.660;2022-11-06T02:47:43;22.08;;;10.70;;
52494;SDS011;38405;53.212;5.660;2022-11-06T02:50:20;16.05;;;10.07;;
52494;SDS011;38405;53.212;5.660;2022-11-06T02:52:54;19.92;;;10.52;;
52494;SDS011;38405;53.212;5.660;2022-11-06T02:55:28;18.92;;;9.30;;
52494;SDS011;38405;53.212;5.660;2022-11-06T02:58:13;16.52;;;10.35;;
52494;SDS011;38405;53.212;5.660;2022-11-06T03:00:43;15.73;;;9.40;;
52494;SDS011;38405;53.212;5.660;2022-11-06T03:05:53;13.63;;;9.70;;
52494;SDS011;38405;53.212;5.660;2022-11-06T03:08:27;14.38;;;10.02;;
52494;SDS011;38405;53.212;5.660;2022-11-06T03:11:19;16.15;;;10.30;;
52494;SDS011;38405;53.212;5.660;2022-11-06T03:22:10;18.33;;;9.88;;
52494;SDS011;38405;53.212;5.660;2022-11-06T03:27:32;14.93;;;9.80;;
52494;SDS011;38405;53.212;5.660;2022-11-06T03:30:05;16.50;;;9.95;;
52494;SDS011;38405;53.212;5.660;2022-11-06T03:35:56;17.70;;;10.68;;
52494;SDS011;38405;53.212;5.660;2022-11-06T03:38:09;11.90;;;9.52;;
52494;SDS011;38405;53.212;5.660;2022-11-06T03:40:44;17.40;;;9.85;;
52494;SDS011;38405;53.212;5.660;2022-11-06T03:43:14;14.73;;;9.60;;
52494;SDS011;38405;53.212;5.660;2022-11-06T03:45:42;11.07;;;8.43;;
52494;SDS011;38405;53.212;5.660;2022-11-06T03:48:15;14.60;;;10.77;;
52494;SDS011;38405;53.212;5.660;2022-11-06T03:53:14;11.32;;;8.75;;
52494;SDS011;38405;53.212;5.660;2022-11-06T03:55:51;16.27;;;10.70;;
52494;SDS011;38405;53.212;5.660;2022-11-06T03:58:22;13.43;;;9.95;;
52494;SDS011;38405;53.212;5.660;2022-11-06T04:00:53;18.10;;;10.18;;
52494;SDS011;38405;53.212;5.660;2022-11-06T04:05:50;14.65;;;9.30;;
52494;SDS011;38405;53.212;5.660;2022-11-06T04:08:20;15.18;;;10.00;;
52494;SDS011;38405;53.212;5.660;2022-11-06T04:11:09;16.27;;;10.32;;
52494;SDS011;38405;53.212;5.660;2022-11-06T04:13:58;21.73;;;11.43;;
52494;SDS011;38405;53.212;5.660;2022-11-06T04:16:38;14.57;;;10.38;;
52494;SDS011;38405;53.212;5.660;2022-11-06T04:19:11;15.40;;;10.07;;
52494;SDS011;38405;53.212;5.660;2022-11-06T04:21:55;13.57;;;10.73;;
52494;SDS011;38405;53.212;5.660;2022-11-06T04:28:07;17.27;;;10.63;;
52494;SDS011;38405;53.212;5.660;2022-11-06T04:33:40;15.57;;;10.55;;
52494;SDS011;38405;53.212;5.660;2022-11-06T04:39:25;13.90;;;10.07;;
52494;SDS011;38405;53.212;5.660;2022-11-06T04:42:01;14.30;;;10.48;;
52494;SDS011;38405;53.212;5.660;2022-11-06T04:44:30;17.73;;;10.63;;
52494;SDS011;38405;53.212;5.660;2022-11-06T04:47:10;15.07;;;10.45;;
52494;SDS011;38405;53.212;5.660;2022-11-06T04:49:39;14.20;;;10.02;;
52494;SDS011;38405;53.212;5.660;2022-11-06T04:52:07;18.60;;;10.13;;
52494;SDS011;38405;53.212;5.660;2022-11-06T04:54:36;16.55;;;9.93;;
52494;SDS011;38405;53.212;5.660;2022-11-06T04:57:02;15.60;;;9.60;;
52494;SDS011;38405;53.212;5.660;2022-11-06T04:59:29;16.30;;;9.95;;
52494;SDS011;38405;53.212;5.660;2022-11-06T05:01:58;18.98;;;11.27;;
52494;SDS011;38405;53.212;5.660;2022-11-06T05:04:23;14.35;;;10.05;;
52494;SDS011;38405;53.212;5.660;2022-11-06T05:06:49;14.15;;;9.95;;
52494;SDS011;38405;53.212;5.660;2022-11-06T05:09:20;13.00;;;9.60;;
52494;SDS011;38405;53.212;5.660;2022-11-06T05:11:46;16.10;;;9.77;;
52494;SDS011;38405;53.212;5.660;2022-11-06T05:14:12;16.27;;;9.40;;
52494;SDS011;38405;53.212;5.660;2022-11-06T05:16:37;14.70;;;9.20;;
52494;SDS011;38405;53.212;5.660;2022-11-06T05:19:03;11.68;;;9.15;;
52494;SDS011;38405;53.212;5.660;2022-11-06T05:21:29;11.05;;;9.02;;
52494;SDS011;38405;53.212;5.660;2022-11-06T05:24:13;11.13;;;8.27;;
52494;SDS011;38405;53.212;5.660;2022-11-06T05:26:39;11.75;;;8.63;;
52494;SDS011;38405;53.212;5.660;2022-11-06T05:29:04;12.75;;;8.13;;
52494;SDS011;38405;53.212;5.660;2022-11-06T05:31:30;13.60;;;8.77;;
52494;SDS011;38405;53.212;5.660;2022-11-06T05:33:55;13.07;;;8.55;;
52494;SDS011;38405;53.212;5.660;2022-11-06T05:36:21;14.30;;;8.57;;
52494;SDS011;38405;53.212;5.660;2022-11-06T05:38:47;10.95;;;8.02;;
52494;SDS011;38405;53.212;5.660;2022-11-06T05:41:12;12.80;;;8.93;;
52494;SDS011;38405;53.212;5.660;2022-11-06T05:43:38;13.57;;;8.30;;
52494;SDS011;38405;53.212;5.660;2022-11-06T05:46:03;15.98;;;9.35;;
52494;SDS011;38405;53.212;5.660;2022-11-06T05:48:29;9.52;;;8.32;;
52494;SDS011;38405;53.212;5.660;2022-11-06T05:50:58;12.90;;;8.57;;
52494;SDS011;38405;53.212;5.660;2022-11-06T05:53:29;14.93;;;8.18;;
52494;SDS011;38405;53.212;5.660;2022-11-06T05:55:56;11.50;;;8.57;;
52494;SDS011;38405;53.212;5.660;2022-11-06T05:58:22;12.52;;;8.82;;
52494;SDS011;38405;53.212;5.660;2022-11-06T06:00:47;11.60;;;9.25;;
52494;SDS011;38405;53.212;5.660;2022-11-06T06:03:13;16.63;;;9.95;;
52494;SDS011;38405;53.212;5.660;2022-11-06T06:05:39;16.80;;;9.77;;
52494;SDS011;38405;53.212;5.660;2022-11-06T06:08:04;14.80;;;9.57;;
52494;SDS011;38405;53.212;5.660;2022-11-06T06:10:31;13.02;;;9.68;;
52494;SDS011;38405;53.212;5.660;2022-11-06T06:12:56;14.82;;;9.70;;
52494;SDS011;38405;53.212;5.660;2022-11-06T06:15:22;14.80;;;8.98;;
52494;SDS011;38405;53.212;5.660;2022-11-06T06:17:48;11.75;;;9.23;;
52494;SDS011;38405;53.212;5.660;2022-11-06T06:20:13;13.10;;;9.18;;
52494;SDS011;38405;53.212;5.660;2022-11-06T06:22:39;16.83;;;9.43;;
52494;SDS011;38405;53.212;5.660;2022-11-06T06:25:05;9.27;;;8.25;;
52494;SDS011;38405;53.212;5.660;2022-11-06T06:27:31;12.80;;;7.53;;
52494;SDS011;38405;53.212;5.660;2022-11-06T06:29:57;11.07;;;8.23;;
52494;SDS011;38405;53.212;5.660;2022-11-06T06:32:23;12.75;;;8.30;;
52494;SDS011;38405;53.212;5.660;2022-11-06T06:34:48;9.55;;;8.55;;
52494;SDS011;38405;53.212;5.660;2022-11-06T06:37:14;11.18;;;8.10;;
52494;SDS011;38405;53.212;5.660;2022-11-06T06:39:39;15.75;;;9.40;;
52494;SDS011;38405;53.212;5.660;2022-11-06T06:42:05;13.13;;;9.65;;
52494;SDS011;38405;53.212;5.660;2022-11-06T06:44:30;18.58;;;10.82;;
52494;SDS011;38405;53.212;5.660;2022-11-06T06:46:56;17.50;;;10.63;;
52494;SDS011;38405;53.212;5.660;2022-11-06T06:49:22;20.90;;;11.43;;
52494;SDS011;38405;53.212;5.660;2022-11-06T06:51:48;19.75;;;11.88;;
52494;SDS011;38405;53.212;5.660;2022-11-06T06:54:13;16.02;;;10.23;;
52494;SDS011;38405;53.212;5.660;2022-11-06T06:56:39;21.60;;;11.15;;
52494;SDS011;38405;53.212;5.660;2022-11-06T06:59:05;21.27;;;11.02;;
52494;SDS011;38405;53.212;5.660;2022-11-06T07:01:31;18.10;;;11.27;;
52494;SDS011;38405;53.212;5.660;2022-11-06T07:03:57;17.25;;;10.00;;
52494;SDS011;38405;53.212;5.660;2022-11-06T07:06:24;18.35;;;10.07;;
52494;SDS011;38405;53.212;5.660;2022-11-06T07:08:53;14.23;;;9.52;;
52494;SDS011;38405;53.212;5.660;2022-11-06T07:11:19;21.60;;;10.13;;
52494;SDS011;38405;53.212;5.660;2022-11-06T07:13:45;13.05;;;9.50;;
52494;SDS011;38405;53.212;5.660;2022-11-06T07:16:10;18.13;;;10.00;;
52494;SDS011;38405;53.212;5.660;2022-11-06T07:18:37;22.42;;;9.95;;
52494;SDS011;38405;53.212;5.660;2022-11-06T07:21:04;23.45;;;9.73;;
52494;SDS011;38405;53.212;5.660;2022-11-06T07:23:31;15.68;;;9.80;;
52494;SDS011;38405;53.212;5.660;2022-11-06T07:25:57;17.85;;;9.73;;
52494;SDS011;38405;53.212;5.660;2022-11-06T07:28:23;17.80;;;10.38;;
52494;SDS011;38405;53.212;5.660;2022-11-06T07:30:48;12.32;;;8.95;;
52494;SDS011;38405;53.212;5.660;2022-11-06T07:33:14;16.80;;;9.52;;
52494;SDS011;38405;53.212;5.660;2022-11-06T07:35:40;18.13;;;9.57;;
52494;SDS011;38405;53.212;5.660;2022-11-06T07:38:05;14.10;;;9.30;;
52494;SDS011;38405;53.212;5.660;2022-11-06T07:40:31;17.88;;;9.35;;
52494;SDS011;38405;53.212;5.660;2022-11-06T07:43:08;20.77;;;9.50;;
52494;SDS011;38405;53.212;5.660;2022-11-06T07:45:35;18.52;;;8.70;;
52494;SDS011;38405;53.212;5.660;2022-11-06T07:48:02;16.63;;;8.80;;
52494;SDS011;38405;53.212;5.660;2022-11-06T07:50:28;18.88;;;8.63;;
52494;SDS011;38405;53.212;5.660;2022-11-06T07:52:54;13.88;;;8.20;;
52494;SDS011;38405;53.212;5.660;2022-11-06T07:55:20;13.13;;;7.72;;
52494;SDS011;38405;53.212;5.660;2022-11-06T07:57:46;13.55;;;7.10;;
52494;SDS011;38405;53.212;5.660;2022-11-06T08:00:12;15.18;;;7.70;;
52494;SDS011;38405;53.212;5.660;2022-11-06T08:02:39;18.45;;;7.65;;
52494;SDS011;38405;53.212;5.660;2022-11-06T08:05:05;16.38;;;6.95;;
52494;SDS011;38405;53.212;5.660;2022-11-06T08:07:31;12.40;;;6.70;;
52494;SDS011;38405;53.212;5.660;2022-11-06T08:09:56;14.80;;;6.30;;
52494;SDS011;38405;53.212;5.660;2022-11-06T08:12:22;13.85;;;6.78;;
52494;SDS011;38405;53.212;5.660;2022-11-06T08:14:47;16.38;;;6.28;;
52494;SDS011;38405;53.212;5.660;2022-11-06T08:17:13;9.35;;;6.03;;
52494;SDS011;38405;53.212;5.660;2022-11-06T08:19:39;14.88;;;6.65;;
52494;SDS011;38405;53.212;5.660;2022-11-06T08:22:04;18.13;;;6.70;;
52494;SDS011;38405;53.212;5.660;2022-11-06T08:24:30;14.30;;;5.97;;
52494;SDS011;38405;53.212;5.660;2022-11-06T08:26:56;13.00;;;5.82;;
52494;SDS011;38405;53.212;5.660;2022-11-06T08:29:22;14.38;;;5.95;;
52494;SDS011;38405;53.212;5.660;2022-11-06T08:31:48;18.67;;;6.00;;
52494;SDS011;38405;53.212;5.660;2022-11-06T08:34:14;13.20;;;5.78;;
52494;SDS011;38405;53.212;5.660;2022-11-06T08:36:42;18.75;;;6.40;;
52494;SDS011;38405;53.212;5.660;2022-11-06T08:39:10;11.07;;;5.30;;
52494;SDS011;38405;53.212;5.660;2022-11-06T08:41:39;10.77;;;5.45;;
52494;SDS011;38405;53.212;5.660;2022-11-06T08:44:05;12.05;;;5.28;;
52494;SDS011;38405;53.212;5.660;2022-11-06T08:46:31;14.00;;;4.95;;
52494;SDS011;38405;53.212;5.660;2022-11-06T08:48:57;11.77;;;5.00;;
52494;SDS011;38405;53.212;5.660;2022-11-06T08:51:23;15.32;;;5.18;;
52494;SDS011;38405;53.212;5.660;2022-11-06T08:53:48;11.77;;;5.25;;
52494;SDS011;38405;53.212;5.660;2022-11-06T08:56:14;9.35;;;4.63;;
52494;SDS011;38405;53.212;5.660;2022-11-06T08:58:40;13.48;;;4.63;;
52494;SDS011;38405;53.212;5.660;2022-11-06T09:01:06;11.75;;;5.00;;
52494;SDS011;38405;53.212;5.660;2022-11-06T09:03:32;16.08;;;5.00;;
52494;SDS011;38405;53.212;5.660;2022-11-06T09:05:57;12.40;;;4.18;;
52494;SDS011;38405;53.212;5.660;2022-11-06T09:08:23;11.82;;;4.38;;
52494;SDS011;38405;53.212;5.660;2022-11-06T09:10:49;8.18;;;3.90;;
52494;SDS011;38405;53.212;5.660;2022-11-06T09:13:14;9.05;;;4.53;;
52494;SDS011;38405;53.212;5.660;2022-11-06T09:15:40;10.88;;;4.53;;
52494;SDS011;38405;53.212;5.660;2022-11-06T09:18:06;12.70;;;4.38;;
52494;SDS011;38405;53.212;5.660;2022-11-06T09:20:32;9.15;;;4.30;;
52494;SDS011;38405;53.212;5.660;2022-11-06T09:23:01;10.75;;;4.32;;
52494;SDS011;38405;53.212;5.660;2022-11-06T09:25:28;8.70;;;4.13;;
52494;SDS011;38405;53.212;5.660;2022-11-06T09:27:54;10.48;;;4.20;;
52494;SDS011;38405;53.212;5.660;2022-11-06T09:30:21;8.25;;;4.22;;
52494;SDS011;38405;53.212;5.660;2022-11-06T09:32:49;7.55;;;3.85;;
52494;SDS011;38405;53.212;5.660;2022-11-06T09:35:22;8.65;;;4.28;;
52494;SDS011;38405;53.212;5.660;2022-11-06T09:37:49;7.55;;;3.78;;
52494;SDS011;38405;53.212;5.660;2022-11-06T09:43:10;15.10;;;4.38;;
52494;SDS011;38405;53.212;5.660;2022-11-06T09:45:47;7.70;;;3.55;;
52494;SDS011;38405;53.212;5.660;2022-11-06T09:50:49;14.25;;;4.32;;
52494;SDS011;38405;53.212;5.660;2022-11-06T09:53:21;8.05;;;3.95;;
52494;SDS011;38405;53.212;5.660;2022-11-06T09:56:11;18.30;;;4.68;;
52494;SDS011;38405;53.212;5.660;2022-11-06T09:58:39;13.02;;;4.43;;
52494;SDS011;38405;53.212;5.660;2022-11-06T10:01:17;12.77;;;4.30;;
52494;SDS011;38405;53.212;5.660;2022-11-06T10:03:51;10.88;;;4.15;;
52494;SDS011;38405;53.212;5.660;2022-11-06T10:06:23;19.27;;;4.53;;
52494;SDS011;38405;53.212;5.660;2022-11-06T10:08:49;11.77;;;3.97;;
52494;SDS011;38405;53.212;5.660;2022-11-06T10:16:40;7.85;;;3.88;;
52494;SDS011;38405;53.212;5.660;2022-11-06T10:24:38;7.15;;;3.72;;
52494;SDS011;38405;53.212;5.660;2022-11-06T10:27:26;10.80;;;4.15;;
52494;SDS011;38405;53.212;5.660;2022-11-06T10:30:13;6.97;;;3.80;;
52494;SDS011;38405;53.212;5.660;2022-11-06T10:35:30;9.18;;;3.60;;
52494;SDS011;38405;53.212;5.660;2022-11-06T10:40:58;7.13;;;3.55;;
52494;SDS011;38405;53.212;5.660;2022-11-06T10:43:33;11.48;;;4.10;;
52494;SDS011;38405;53.212;5.660;2022-11-06T10:49:00;7.65;;;3.53;;
52494;SDS011;38405;53.212;5.660;2022-11-06T10:54:53;10.52;;;3.63;;
52494;SDS011;38405;53.212;5.660;2022-11-06T10:57:54;9.05;;;3.85;;
52494;SDS011;38405;53.212;5.660;2022-11-06T11:00:36;7.35;;;3.75;;
52494;SDS011;38405;53.212;5.660;2022-11-06T11:03:04;16.15;;;4.38;;
52494;SDS011;38405;53.212;5.660;2022-11-06T11:05:43;10.30;;;4.07;;
52494;SDS011;38405;53.212;5.660;2022-11-06T11:13:49;8.45;;;3.80;;
52494;SDS011;38405;53.212;5.660;2022-11-06T11:16:36;10.88;;;3.90;;
52494;SDS011;38405;53.212;5.660;2022-11-06T11:21:40;9.95;;;4.00;;
52494;SDS011;38405;53.212;5.660;2022-11-06T11:24:36;11.70;;;3.92;;
52494;SDS011;38405;53.212;5.660;2022-11-06T11:27:03;8.43;;;3.85;;
52494;SDS011;38405;53.212;5.660;2022-11-06T11:29:41;13.68;;;3.70;;
52494;SDS011;38405;53.212;5.660;2022-11-06T11:32:11;8.27;;;3.17;;
52494;SDS011;38405;53.212;5.660;2022-11-06T11:34:42;9.57;;;3.15;;
52494;SDS011;38405;53.212;5.660;2022-11-06T11:37:22;10.52;;;3.25;;
52494;SDS011;38405;53.212;5.660;2022-11-06T11:40:16;9.13;;;3.17;;
52494;SDS011;38405;53.212;5.660;2022-11-06T11:42:42;8.27;;;3.10;;
52494;SDS011;38405;53.212;5.660;2022-11-06T11:47:41;8.00;;;3.40;;
52494;SDS011;38405;53.212;5.660;2022-11-06T11:52:42;8.90;;;3.00;;
52494;SDS011;38405;53.212;5.660;2022-11-06T11:55:17;11.85;;;3.63;;
52494;SDS011;38405;53.212;5.660;2022-11-06T11:57:46;8.52;;;3.45;;
52494;SDS011;38405;53.212;5.660;2022-11-06T12:00:15;9.73;;;3.53;;
52494;SDS011;38405;53.212;5.660;2022-11-06T12:02:44;10.70;;;2.90;;
52494;SDS011;38405;53.212;5.660;2022-11-06T12:05:15;12.02;;;3.38;;
52494;SDS011;38405;53.212;5.660;2022-11-06T12:07:47;14.88;;;3.88;;
52494;SDS011;38405;53.212;5.660;2022-11-06T12:13:22;10.18;;;4.05;;
52494;SDS011;38405;53.212;5.660;2022-11-06T12:18:32;13.63;;;3.60;;
52494;SDS011;38405;53.212;5.660;2022-11-06T12:23:55;11.05;;;3.00;;
52494;SDS011;38405;53.212;5.660;2022-11-06T12:26:33;9.23;;;3.50;;
52494;SDS011;38405;53.212;5.660;2022-11-06T12:29:21;6.95;;;2.80;;
52494;SDS011;38405;53.212;5.660;2022-11-06T12:34:48;10.48;;;3.00;;
52494;SDS011;38405;53.212;5.660;2022-11-06T12:40:37;10.43;;;2.97;;
52494;SDS011;38405;53.212;5.660;2022-11-06T12:43:10;7.40;;;2.72;;
52494;SDS011;38405;53.212;5.660;2022-11-06T12:51:32;8.05;;;2.67;;
52494;SDS011;38405;53.212;5.660;2022-11-06T13:00:02;6.78;;;2.55;;
52494;SDS011;38405;53.212;5.660;2022-11-06T13:05:19;6.30;;;2.50;;
52494;SDS011;38405;53.212;5.660;2022-11-06T13:13:09;10.15;;;2.67;;
52494;SDS011;38405;53.212;5.660;2022-11-06T13:18:26;10.30;;;3.15;;
52494;SDS011;38405;53.212;5.660;2022-11-06T13:23:49;10.30;;;2.83;;
52494;SDS011;38405;53.212;5.660;2022-11-06T13:29:17;5.30;;;2.50;;
52494;SDS011;38405;53.212;5.660;2022-11-06T13:31:53;8.63;;;3.00;;
52494;SDS011;38405;53.212;5.660;2022-11-06T13:34:36;6.53;;;3.00;;
52494;SDS011;38405;53.212;5.660;2022-11-06T13:37:17;3.88;;;2.35;;
52494;SDS011;38405;53.212;5.660;2022-11-06T13:39:57;6.70;;;2.70;;
52494;SDS011;38405;53.212;5.660;2022-11-06T13:42:29;6.97;;;2.83;;
52494;SDS011;38405;53.212;5.660;2022-11-06T13:45:00;8.10;;;3.15;;
52494;SDS011;38405;53.212;5.660;2022-11-06T13:47:32;10.68;;;3.05;;
52494;SDS011;38405;53.212;5.660;2022-11-06T13:50:26;7.30;;;2.80;;
52494;SDS011;38405;53.212;5.660;2022-11-06T13:53:02;5.32;;;2.75;;
52494;SDS011;38405;53.212;5.660;2022-11-06T13:55:52;10.15;;;2.95;;
52494;SDS011;38405;53.212;5.660;2022-11-06T14:03:41;10.25;;;2.65;;
52494;SDS011;38405;53.212;5.660;2022-11-06T14:06:19;8.90;;;2.73;;
52494;SDS011;38405;53.212;5.660;2022-11-06T14:08:51;9.68;;;3.08;;
52494;SDS011;38405;53.212;5.660;2022-11-06T14:11:30;5.70;;;2.75;;
52494;SDS011;38405;53.212;5.660;2022-11-06T14:13:59;7.25;;;2.72;;
52494;SDS011;38405;53.212;5.660;2022-11-06T14:16:28;7.03;;;2.42;;
52494;SDS011;38405;53.212;5.660;2022-11-06T14:26:45;6.80;;;2.50;;
52494;SDS011;38405;53.212;5.660;2022-11-06T14:32:03;7.38;;;2.28;;
52494;SDS011;38405;53.212;5.660;2022-11-06T14:34:57;7.30;;;2.58;;
52494;SDS011;38405;53.212;5.660;2022-11-06T14:40:11;6.88;;;2.40;;
52494;SDS011;38405;53.212;5.660;2022-11-06T14:42:42;6.10;;;2.03;;
52494;SDS011;38405;53.212;5.660;2022-11-06T14:45:11;6.97;;;2.38;;
52494;SDS011;38405;53.212;5.660;2022-11-06T14:53:18;6.55;;;2.10;;
52494;SDS011;38405;53.212;5.660;2022-11-06T14:55:55;5.32;;;2.13;;
52494;SDS011;38405;53.212;5.660;2022-11-06T14:58:31;7.90;;;2.53;;
52494;SDS011;38405;53.212;5.660;2022-11-06T15:16:23;8.65;;;2.60;;
52494;SDS011;38405;53.212;5.660;2022-11-06T15:19:19;9.25;;;2.35;;
52494;SDS011;38405;53.212;5.660;2022-11-06T15:21:53;6.03;;;2.75;;
52494;SDS011;38405;53.212;5.660;2022-11-06T15:24:40;7.55;;;2.50;;
52494;SDS011;38405;53.212;5.660;2022-11-06T15:27:15;6.93;;;2.38;;
52494;SDS011;38405;53.212;5.660;2022-11-06T15:29:43;6.50;;;2.50;;
52494;SDS011;38405;53.212;5.660;2022-11-06T15:32:12;10.35;;;2.83;;
52494;SDS011;38405;53.212;5.660;2022-11-06T15:34:43;5.93;;;1.95;;
52494;SDS011;38405;53.212;5.660;2022-11-06T15:37:18;6.75;;;2.22;;
52494;SDS011;38405;53.212;5.660;2022-11-06T15:39:49;9.98;;;2.97;;
52494;SDS011;38405;53.212;5.660;2022-11-06T15:42:21;10.13;;;2.70;;
52494;SDS011;38405;53.212;5.660;2022-11-06T15:44:48;11.20;;;2.50;;
52494;SDS011;38405;53.212;5.660;2022-11-06T15:47:19;7.10;;;2.30;;
52494;SDS011;38405;53.212;5.660;2022-11-06T15:49:44;6.60;;;2.28;;
52494;SDS011;38405;53.212;5.660;2022-11-06T15:52:16;5.22;;;2.35;;
52494;SDS011;38405;53.212;5.660;2022-11-06T15:54:42;10.77;;;2.10;;
52494;SDS011;38405;53.212;5.660;2022-11-06T15:57:16;10.38;;;2.80;;
52494;SDS011;38405;53.212;5.660;2022-11-06T15:59:50;8.30;;;2.50;;
52494;SDS011;38405;53.212;5.660;2022-11-06T16:05:26;11.85;;;2.88;;
52494;SDS011;38405;53.212;5.660;2022-11-06T16:07:55;7.45;;;2.30;;
52494;SDS011;38405;53.212;5.660;2022-11-06T16:10:23;10.63;;;3.10;;
52494;SDS011;38405;53.212;5.660;2022-11-06T16:12:49;6.68;;;2.05;;
52494;SDS011;38405;53.212;5.660;2022-11-06T16:18:20;4.68;;;2.22;;
52494;SDS011;38405;53.212;5.660;2022-11-06T16:21:09;4.65;;;2.05;;
52494;SDS011;38405;53.212;5.660;2022-11-06T16:24:08;6.50;;;2.42;;
52494;SDS011;38405;53.212;5.660;2022-11-06T16:26:36;8.35;;;2.50;;
52494;SDS011;38405;53.212;5.660;2022-11-06T16:29:14;5.07;;;2.00;;
52494;SDS011;38405;53.212;5.660;2022-11-06T16:31:43;9.25;;;3.08;;
52494;SDS011;38405;53.212;5.660;2022-11-06T16:34:52;7.78;;;2.70;;
52494;SDS011;38405;53.212;5.660;2022-11-06T16:39:44;9.18;;;2.30;;
52494;SDS011;38405;53.212;5.660;2022-11-06T16:44:49;8.15;;;2.63;;
52494;SDS011;38405;53.212;5.660;2022-11-06T16:47:35;5.22;;;1.95;;
52494;SDS011;38405;53.212;5.660;2022-11-06T16:50:01;5.55;;;2.40;;
52494;SDS011;38405;53.212;5.660;2022-11-06T16:52:33;4.95;;;1.95;;
52494;SDS011;38405;53.212;5.660;2022-11-06T16:57:51;11.38;;;2.60;;
52494;SDS011;38405;53.212;5.660;2022-11-06T17:02:46;3.78;;;2.00;;
52494;SDS011;38405;53.212;5.660;2022-11-06T17:05:15;7.53;;;2.75;;
52494;SDS011;38405;53.212;5.660;2022-11-06T17:07:48;5.20;;;2.58;;
52494;SDS011;38405;53.212;5.660;2022-11-06T17:10:35;8.27;;;2.53;;
52494;SDS011;38405;53.212;5.660;2022-11-06T17:13:09;7.35;;;2.47;;
52494;SDS011;38405;53.212;5.660;2022-11-06T17:18:01;8.95;;;2.60;;
52494;SDS011;38405;53.212;5.660;2022-11-06T17:20:27;6.47;;;2.47;;
52494;SDS011;38405;53.212;5.660;2022-11-06T17:22:54;4.90;;;2.13;;
52494;SDS011;38405;53.212;5.660;2022-11-06T17:25:20;5.20;;;2.63;;
52494;SDS011;38405;53.212;5.660;2022-11-06T17:27:45;9.25;;;2.22;;
52494;SDS011;38405;53.212;5.660;2022-11-06T17:30:12;4.03;;;2.15;;
52494;SDS011;38405;53.212;5.660;2022-11-06T17:32:38;5.70;;;2.10;;
52494;SDS011;38405;53.212;5.660;2022-11-06T17:35:05;4.90;;;1.85;;
52494;SDS011;38405;53.212;5.660;2022-11-06T17:37:32;5.60;;;2.00;;
52494;SDS011;38405;53.212;5.660;2022-11-06T17:39:57;8.20;;;1.80;;
52494;SDS011;38405;53.212;5.660;2022-11-06T17:42:23;7.07;;;2.00;;
52494;SDS011;38405;53.212;5.660;2022-11-06T17:44:49;3.13;;;1.80;;
52494;SDS011;38405;53.212;5.660;2022-11-06T17:47:14;3.97;;;1.95;;
52494;SDS011;38405;53.212;5.660;2022-11-06T17:49:41;4.03;;;1.85;;
52494;SDS011;38405;53.212;5.660;2022-11-06T17:52:07;3.92;;;1.90;;
52494;SDS011;38405;53.212;5.660;2022-11-06T17:54:33;6.07;;;1.90;;
52494;SDS011;38405;53.212;5.660;2022-11-06T17:57:02;6.70;;;2.28;;
52494;SDS011;38405;53.212;5.660;2022-11-06T17:59:29;9.73;;;2.08;;
52494;SDS011;38405;53.212;5.660;2022-11-06T18:01:55;5.68;;;2.13;;
52494;SDS011;38405;53.212;5.660;2022-11-06T18:04:22;3.35;;;2.20;;
52494;SDS011;38405;53.212;5.660;2022-11-06T18:06:49;3.53;;;1.88;;